sensor_id;sensor_type;location;lat;lon;timestamp;P1;durP1;ratioP1;P2;durP2;ratioP2
20846;SDS011;10584;50.854;12.902;2023-03-01T00:03:34;49.77;;;17.70;;
20846;SDS011;10584;50.854;12.902;2023-03-01T00:08:56;47.43;;;16.00;;
20846;SDS011;10584;50.854;12.902;2023-03-01T00:14:18;47.77;;;17.30;;
20846;SDS011;10584;50.854;12.902;2023-03-01T00:19:40;41.97;;;16.37;;
20846;SDS011;10584;50.854;12.902;2023-03-01T00:25:01;47.67;;;16.90;;
20846;SDS011;10584;50.854;12.902;2023-03-01T00:30:23;46.60;;;16.73;;
20846;SDS011;10584;50.854;12.902;2023-03-01T00:35:45;46.97;;;16.40;;
20846;SDS011;10584;50.854;12.902;2023-03-01T00:41:08;49.47;;;17.33;;
20846;SDS011;10584;50.854;12.902;2023-03-01T00:46:31;49.70;;;18.20;;
20846;SDS011;10584;50.854;12.902;2023-03-01T00:51:54;48.27;;;17.80;;
20846;SDS011;10584;50.854;12.902;2023-03-01T00:57:16;46.53;;;16.70;;
20846;SDS011;10584;50.854;12.902;2023-03-01T01:02:38;40.33;;;17.23;;
20846;SDS011;10584;50.854;12.902;2023-03-01T01:08:00;50.60;;;16.90;;
20846;SDS011;10584;50.854;12.902;2023-03-01T01:13:21;46.60;;;17.10;;
20846;SDS011;10584;50.854;12.902;2023-03-01T01:18:43;52.03;;;16.03;;
20846;SDS011;10584;50.854;12.902;2023-03-01T01:24:05;47.47;;;16.77;;
20846;SDS011;10584;50.854;12.902;2023-03-01T01:29:27;52.13;;;17.73;;
20846;SDS011;10584;50.854;12.902;2023-03-01T01:34:49;49.47;;;17.17;;
20846;SDS011;10584;50.854;12.902;2023-03-01T01:40:10;48.63;;;16.60;;
20846;SDS011;10584;50.854;12.902;2023-03-01T01:45:33;48.60;;;16.93;;
20846;SDS011;10584;50.854;12.902;2023-03-01T01:50:57;50.93;;;16.57;;
20846;SDS011;10584;50.854;12.902;2023-03-01T01:56:20;52.67;;;16.87;;
20846;SDS011;10584;50.854;12.902;2023-03-01T02:01:46;50.33;;;17.17;;
20846;SDS011;10584;50.854;12.902;2023-03-01T02:07:17;41.93;;;16.83;;
20846;SDS011;10584;50.854;12.902;2023-03-01T02:12:43;47.20;;;16.83;;
20846;SDS011;10584;50.854;12.902;2023-03-01T02:18:06;44.67;;;15.93;;
20846;SDS011;10584;50.854;12.902;2023-03-01T02:23:29;40.03;;;14.83;;
20846;SDS011;10584;50.854;12.902;2023-03-01T02:28:51;48.10;;;16.87;;
20846;SDS011;10584;50.854;12.902;2023-03-01T02:34:17;47.37;;;16.23;;
20846;SDS011;10584;50.854;12.902;2023-03-01T02:39:42;45.50;;;17.17;;
20846;SDS011;10584;50.854;12.902;2023-03-01T02:45:10;45.17;;;15.50;;
20846;SDS011;10584;50.854;12.902;2023-03-01T02:50:43;50.33;;;17.20;;
20846;SDS011;10584;50.854;12.902;2023-03-01T02:56:25;48.87;;;15.87;;
20846;SDS011;10584;50.854;12.902;2023-03-01T03:01:47;47.23;;;16.07;;
20846;SDS011;10584;50.854;12.902;2023-03-01T03:07:09;50.70;;;17.10;;
20846;SDS011;10584;50.854;12.902;2023-03-01T03:12:31;46.53;;;16.70;;
20846;SDS011;10584;50.854;12.902;2023-03-01T03:17:53;48.80;;;15.57;;
20846;SDS011;10584;50.854;12.902;2023-03-01T03:23:16;48.83;;;17.23;;
20846;SDS011;10584;50.854;12.902;2023-03-01T03:28:37;49.67;;;17.07;;
20846;SDS011;10584;50.854;12.902;2023-03-01T03:33:59;51.83;;;17.63;;
20846;SDS011;10584;50.854;12.902;2023-03-01T03:39:21;53.53;;;16.87;;
20846;SDS011;10584;50.854;12.902;2023-03-01T03:44:43;48.50;;;16.87;;
20846;SDS011;10584;50.854;12.902;2023-03-01T03:50:05;42.87;;;16.00;;
20846;SDS011;10584;50.854;12.902;2023-03-01T03:55:27;49.97;;;17.83;;
20846;SDS011;10584;50.854;12.902;2023-03-01T04:00:55;45.43;;;16.63;;
20846;SDS011;10584;50.854;12.902;2023-03-01T04:06:17;46.00;;;15.40;;
20846;SDS011;10584;50.854;12.902;2023-03-01T04:11:39;51.30;;;16.83;;
20846;SDS011;10584;50.854;12.902;2023-03-01T04:17:00;51.30;;;16.47;;
20846;SDS011;10584;50.854;12.902;2023-03-01T04:22:25;51.53;;;16.43;;
20846;SDS011;10584;50.854;12.902;2023-03-01T04:27:49;43.17;;;16.97;;
20846;SDS011;10584;50.854;12.902;2023-03-01T04:33:11;41.33;;;15.87;;
20846;SDS011;10584;50.854;12.902;2023-03-01T04:38:33;48.07;;;16.87;;
20846;SDS011;10584;50.854;12.902;2023-03-01T04:43:58;45.03;;;15.73;;
20846;SDS011;10584;50.854;12.902;2023-03-01T04:49:20;43.83;;;16.10;;
20846;SDS011;10584;50.854;12.902;2023-03-01T04:54:41;40.70;;;14.33;;
20846;SDS011;10584;50.854;12.902;2023-03-01T05:00:03;44.73;;;15.30;;
20846;SDS011;10584;50.854;12.902;2023-03-01T05:05:40;41.90;;;15.53;;
20846;SDS011;10584;50.854;12.902;2023-03-01T05:11:01;46.43;;;15.40;;
20846;SDS011;10584;50.854;12.902;2023-03-01T05:16:23;45.60;;;16.47;;
20846;SDS011;10584;50.854;12.902;2023-03-01T05:21:45;39.83;;;15.83;;
20846;SDS011;10584;50.854;12.902;2023-03-01T05:27:22;51.23;;;17.40;;
20846;SDS011;10584;50.854;12.902;2023-03-01T05:32:44;44.20;;;15.60;;
20846;SDS011;10584;50.854;12.902;2023-03-01T05:38:11;42.30;;;15.20;;
20846;SDS011;10584;50.854;12.902;2023-03-01T05:43:33;47.43;;;15.87;;
20846;SDS011;10584;50.854;12.902;2023-03-01T05:48:55;45.10;;;15.23;;
20846;SDS011;10584;50.854;12.902;2023-03-01T05:54:17;49.23;;;16.40;;
20846;SDS011;10584;50.854;12.902;2023-03-01T05:59:40;51.83;;;16.67;;
20846;SDS011;10584;50.854;12.902;2023-03-01T06:05:01;52.63;;;16.40;;
20846;SDS011;10584;50.854;12.902;2023-03-01T06:10:23;43.93;;;14.83;;
20846;SDS011;10584;50.854;12.902;2023-03-01T06:15:45;49.70;;;17.57;;
20846;SDS011;10584;50.854;12.902;2023-03-01T06:21:07;44.10;;;15.17;;
20846;SDS011;10584;50.854;12.902;2023-03-01T06:26:29;50.30;;;15.47;;
20846;SDS011;10584;50.854;12.902;2023-03-01T06:31:51;42.03;;;15.10;;
20846;SDS011;10584;50.854;12.902;2023-03-01T06:37:13;47.87;;;15.37;;
20846;SDS011;10584;50.854;12.902;2023-03-01T06:42:35;46.07;;;14.80;;
20846;SDS011;10584;50.854;12.902;2023-03-01T06:48:04;47.27;;;16.77;;
20846;SDS011;10584;50.854;12.902;2023-03-01T06:53:28;45.63;;;15.97;;
20846;SDS011;10584;50.854;12.902;2023-03-01T06:58:50;45.80;;;16.30;;
20846;SDS011;10584;50.854;12.902;2023-03-01T07:04:12;56.00;;;18.57;;
20846;SDS011;10584;50.854;12.902;2023-03-01T07:09:33;56.27;;;18.03;;
20846;SDS011;10584;50.854;12.902;2023-03-01T07:14:55;52.57;;;18.23;;
20846;SDS011;10584;50.854;12.902;2023-03-01T07:20:17;60.47;;;17.57;;
20846;SDS011;10584;50.854;12.902;2023-03-01T07:25:44;48.60;;;17.07;;
20846;SDS011;10584;50.854;12.902;2023-03-01T07:31:14;72.67;;;18.53;;
20846;SDS011;10584;50.854;12.902;2023-03-01T07:36:35;52.43;;;17.73;;
20846;SDS011;10584;50.854;12.902;2023-03-01T07:41:57;53.80;;;17.30;;
20846;SDS011;10584;50.854;12.902;2023-03-01T07:47:19;57.73;;;19.43;;
20846;SDS011;10584;50.854;12.902;2023-03-01T07:52:41;52.47;;;18.40;;
20846;SDS011;10584;50.854;12.902;2023-03-01T07:58:05;48.40;;;18.43;;
20846;SDS011;10584;50.854;12.902;2023-03-01T08:03:27;61.07;;;19.10;;
20846;SDS011;10584;50.854;12.902;2023-03-01T08:08:49;47.43;;;18.27;;
20846;SDS011;10584;50.854;12.902;2023-03-01T08:14:10;54.43;;;19.23;;
20846;SDS011;10584;50.854;12.902;2023-03-01T08:19:32;57.07;;;20.53;;
20846;SDS011;10584;50.854;12.902;2023-03-01T08:24:55;59.80;;;22.17;;
20846;SDS011;10584;50.854;12.902;2023-03-01T08:30:16;60.77;;;22.67;;
20846;SDS011;10584;50.854;12.902;2023-03-01T08:35:38;56.83;;;21.80;;
20846;SDS011;10584;50.854;12.902;2023-03-01T08:41:01;55.57;;;20.60;;
20846;SDS011;10584;50.854;12.902;2023-03-01T08:46:24;52.20;;;18.70;;
20846;SDS011;10584;50.854;12.902;2023-03-01T08:51:47;54.37;;;20.87;;
20846;SDS011;10584;50.854;12.902;2023-03-01T08:57:09;53.23;;;20.27;;
20846;SDS011;10584;50.854;12.902;2023-03-01T09:02:31;56.40;;;21.70;;
20846;SDS011;10584;50.854;12.902;2023-03-01T09:07:52;46.90;;;19.47;;
20846;SDS011;10584;50.854;12.902;2023-03-01T09:13:14;50.83;;;19.97;;
20846;SDS011;10584;50.854;12.902;2023-03-01T09:18:35;43.47;;;17.30;;
20846;SDS011;10584;50.854;12.902;2023-03-01T09:23:57;47.17;;;18.13;;
20846;SDS011;10584;50.854;12.902;2023-03-01T09:29:19;49.17;;;18.67;;
20846;SDS011;10584;50.854;12.902;2023-03-01T09:34:41;49.80;;;18.23;;
20846;SDS011;10584;50.854;12.902;2023-03-01T09:40:21;42.60;;;18.23;;
20846;SDS011;10584;50.854;12.902;2023-03-01T09:45:47;49.77;;;18.20;;
20846;SDS011;10584;50.854;12.902;2023-03-01T09:51:16;44.10;;;18.00;;
20846;SDS011;10584;50.854;12.902;2023-03-01T09:56:47;39.73;;;17.57;;
20846;SDS011;10584;50.854;12.902;2023-03-01T10:19:26;44.40;;;18.87;;
20846;SDS011;10584;50.854;12.902;2023-03-01T10:24:52;42.53;;;18.27;;
20846;SDS011;10584;50.854;12.902;2023-03-01T10:30:22;46.40;;;16.70;;
20846;SDS011;10584;50.854;12.902;2023-03-01T10:35:54;41.77;;;18.53;;
20846;SDS011;10584;50.854;12.902;2023-03-01T10:41:16;44.80;;;19.47;;
20846;SDS011;10584;50.854;12.902;2023-03-01T10:46:38;44.23;;;18.47;;
20846;SDS011;10584;50.854;12.902;2023-03-01T10:52:10;42.70;;;18.00;;
20846;SDS011;10584;50.854;12.902;2023-03-01T10:57:40;42.67;;;18.03;;
20846;SDS011;10584;50.854;12.902;2023-03-01T11:03:03;44.70;;;18.93;;
20846;SDS011;10584;50.854;12.902;2023-03-01T11:19:59;38.37;;;17.80;;
20846;SDS011;10584;50.854;12.902;2023-03-01T11:25:29;44.87;;;19.27;;
20846;SDS011;10584;50.854;12.902;2023-03-01T11:31:04;43.63;;;19.03;;
20846;SDS011;10584;50.854;12.902;2023-03-01T11:47:55;41.60;;;15.80;;
20846;SDS011;10584;50.854;12.902;2023-03-01T11:53:38;38.97;;;17.30;;
20846;SDS011;10584;50.854;12.902;2023-03-01T11:59:37;41.33;;;17.33;;
20846;SDS011;10584;50.854;12.902;2023-03-01T12:38:55;46.67;;;22.07;;
20846;SDS011;10584;50.854;12.902;2023-03-01T12:50:40;54.90;;;21.47;;
20846;SDS011;10584;50.854;12.902;2023-03-01T12:56:08;51.67;;;21.07;;
20846;SDS011;10584;50.854;12.902;2023-03-01T13:18:33;40.83;;;18.37;;
20846;SDS011;10584;50.854;12.902;2023-03-01T13:23:55;46.60;;;19.70;;
20846;SDS011;10584;50.854;12.902;2023-03-01T13:29:26;45.93;;;20.47;;
20846;SDS011;10584;50.854;12.902;2023-03-01T13:34:58;40.80;;;19.50;;
20846;SDS011;10584;50.854;12.902;2023-03-01T13:45:50;41.57;;;18.57;;
20846;SDS011;10584;50.854;12.902;2023-03-01T13:51:12;45.60;;;19.67;;
20846;SDS011;10584;50.854;12.902;2023-03-01T13:56:36;41.03;;;19.27;;
20846;SDS011;10584;50.854;12.902;2023-03-01T14:01:59;37.50;;;16.43;;
20846;SDS011;10584;50.854;12.902;2023-03-01T14:07:21;35.77;;;15.63;;
20846;SDS011;10584;50.854;12.902;2023-03-01T14:13:12;33.07;;;12.43;;
20846;SDS011;10584;50.854;12.902;2023-03-01T14:18:47;42.60;;;17.97;;
20846;SDS011;10584;50.854;12.902;2023-03-01T14:24:38;38.07;;;17.07;;
20846;SDS011;10584;50.854;12.902;2023-03-01T14:30:21;20.57;;;8.97;;
20846;SDS011;10584;50.854;12.902;2023-03-01T14:41:27;41.23;;;15.23;;
20846;SDS011;10584;50.854;12.902;2023-03-01T14:46:56;37.47;;;17.03;;
20846;SDS011;10584;50.854;12.902;2023-03-01T14:52:20;37.53;;;15.70;;
20846;SDS011;10584;50.854;12.902;2023-03-01T14:57:44;38.37;;;15.80;;
20846;SDS011;10584;50.854;12.902;2023-03-01T15:03:14;38.27;;;14.97;;
20846;SDS011;10584;50.854;12.902;2023-03-01T15:08:47;34.33;;;16.00;;
20846;SDS011;10584;50.854;12.902;2023-03-01T15:19:49;37.70;;;15.87;;
20846;SDS011;10584;50.854;12.902;2023-03-01T15:25:15;35.03;;;15.20;;
20846;SDS011;10584;50.854;12.902;2023-03-01T15:30:39;34.30;;;14.07;;
20846;SDS011;10584;50.854;12.902;2023-03-01T15:36:02;31.20;;;14.23;;
20846;SDS011;10584;50.854;12.902;2023-03-01T15:41:47;34.67;;;14.57;;
20846;SDS011;10584;50.854;12.902;2023-03-01T15:47:23;37.33;;;15.20;;
20846;SDS011;10584;50.854;12.902;2023-03-01T15:52:49;40.17;;;15.70;;
20846;SDS011;10584;50.854;12.902;2023-03-01T15:58:12;32.67;;;14.37;;
20846;SDS011;10584;50.854;12.902;2023-03-01T16:03:39;32.50;;;14.20;;
20846;SDS011;10584;50.854;12.902;2023-03-01T16:09:01;34.60;;;14.93;;
20846;SDS011;10584;50.854;12.902;2023-03-01T16:14:23;35.80;;;15.17;;
20846;SDS011;10584;50.854;12.902;2023-03-01T16:19:44;35.03;;;14.17;;
20846;SDS011;10584;50.854;12.902;2023-03-01T16:25:06;33.37;;;14.10;;
20846;SDS011;10584;50.854;12.902;2023-03-01T16:30:29;34.20;;;15.40;;
20846;SDS011;10584;50.854;12.902;2023-03-01T16:35:51;37.80;;;14.97;;
20846;SDS011;10584;50.854;12.902;2023-03-01T16:41:14;32.87;;;14.17;;
20846;SDS011;10584;50.854;12.902;2023-03-01T16:46:36;35.67;;;14.80;;
20846;SDS011;10584;50.854;12.902;2023-03-01T16:51:58;41.37;;;16.53;;
20846;SDS011;10584;50.854;12.902;2023-03-01T16:57:20;39.57;;;15.80;;
20846;SDS011;10584;50.854;12.902;2023-03-01T17:02:42;40.33;;;16.27;;
20846;SDS011;10584;50.854;12.902;2023-03-01T17:08:03;39.97;;;17.23;;
20846;SDS011;10584;50.854;12.902;2023-03-01T17:13:25;50.03;;;17.77;;
20846;SDS011;10584;50.854;12.902;2023-03-01T17:18:47;50.03;;;20.43;;
20846;SDS011;10584;50.854;12.902;2023-03-01T17:24:09;52.60;;;19.83;;
20846;SDS011;10584;50.854;12.902;2023-03-01T17:29:32;47.73;;;19.37;;
20846;SDS011;10584;50.854;12.902;2023-03-01T17:34:54;47.60;;;18.87;;
20846;SDS011;10584;50.854;12.902;2023-03-01T17:40:16;48.40;;;18.40;;
20846;SDS011;10584;50.854;12.902;2023-03-01T17:45:38;49.20;;;19.93;;
20846;SDS011;10584;50.854;12.902;2023-03-01T17:51:04;50.67;;;18.90;;
20846;SDS011;10584;50.854;12.902;2023-03-01T17:56:26;57.67;;;20.53;;
20846;SDS011;10584;50.854;12.902;2023-03-01T18:01:48;51.57;;;19.83;;
20846;SDS011;10584;50.854;12.902;2023-03-01T18:07:10;48.03;;;18.93;;
20846;SDS011;10584;50.854;12.902;2023-03-01T18:12:32;48.00;;;19.33;;
20846;SDS011;10584;50.854;12.902;2023-03-01T18:17:53;47.63;;;19.53;;
20846;SDS011;10584;50.854;12.902;2023-03-01T18:23:15;46.40;;;19.07;;
20846;SDS011;10584;50.854;12.902;2023-03-01T18:28:37;46.87;;;19.70;;
20846;SDS011;10584;50.854;12.902;2023-03-01T18:33:59;53.57;;;17.63;;
20846;SDS011;10584;50.854;12.902;2023-03-01T18:39:21;43.57;;;17.33;;
20846;SDS011;10584;50.854;12.902;2023-03-01T18:44:43;42.93;;;17.60;;
20846;SDS011;10584;50.854;12.902;2023-03-01T18:50:05;43.07;;;15.87;;
20846;SDS011;10584;50.854;12.902;2023-03-01T18:55:27;47.33;;;18.50;;
20846;SDS011;10584;50.854;12.902;2023-03-01T19:00:49;48.57;;;18.40;;
20846;SDS011;10584;50.854;12.902;2023-03-01T19:06:10;49.73;;;19.10;;
20846;SDS011;10584;50.854;12.902;2023-03-01T19:11:33;55.43;;;21.77;;
20846;SDS011;10584;50.854;12.902;2023-03-01T19:16:55;59.87;;;22.60;;
20846;SDS011;10584;50.854;12.902;2023-03-01T19:22:16;56.13;;;22.23;;
20846;SDS011;10584;50.854;12.902;2023-03-01T19:27:38;58.40;;;20.43;;
20846;SDS011;10584;50.854;12.902;2023-03-01T19:33:00;75.70;;;25.57;;
20846;SDS011;10584;50.854;12.902;2023-03-01T19:38:22;55.83;;;20.43;;
20846;SDS011;10584;50.854;12.902;2023-03-01T19:43:44;52.17;;;20.17;;
20846;SDS011;10584;50.854;12.902;2023-03-01T19:49:06;50.90;;;19.33;;
20846;SDS011;10584;50.854;12.902;2023-03-01T19:54:28;54.53;;;19.80;;
20846;SDS011;10584;50.854;12.902;2023-03-01T19:59:50;57.20;;;20.00;;
20846;SDS011;10584;50.854;12.902;2023-03-01T20:05:11;59.23;;;21.03;;
20846;SDS011;10584;50.854;12.902;2023-03-01T20:10:33;54.43;;;19.80;;
20846;SDS011;10584;50.854;12.902;2023-03-01T20:15:55;55.00;;;19.97;;
20846;SDS011;10584;50.854;12.902;2023-03-01T20:21:17;63.43;;;22.73;;
20846;SDS011;10584;50.854;12.902;2023-03-01T20:26:44;68.70;;;25.47;;
20846;SDS011;10584;50.854;12.902;2023-03-01T20:32:05;73.17;;;25.60;;
20846;SDS011;10584;50.854;12.902;2023-03-01T20:37:28;67.57;;;25.20;;
20846;SDS011;10584;50.854;12.902;2023-03-01T20:42:49;62.33;;;23.00;;
20846;SDS011;10584;50.854;12.902;2023-03-01T20:48:11;56.53;;;21.93;;
20846;SDS011;10584;50.854;12.902;2023-03-01T20:53:33;60.73;;;22.00;;
20846;SDS011;10584;50.854;12.902;2023-03-01T20:58:54;66.43;;;24.63;;
20846;SDS011;10584;50.854;12.902;2023-03-01T21:04:21;59.23;;;21.43;;
20846;SDS011;10584;50.854;12.902;2023-03-01T21:09:43;64.27;;;22.80;;
20846;SDS011;10584;50.854;12.902;2023-03-01T21:15:05;63.77;;;22.43;;
20846;SDS011;10584;50.854;12.902;2023-03-01T21:20:30;63.53;;;21.97;;
20846;SDS011;10584;50.854;12.902;2023-03-01T21:26:02;58.07;;;21.37;;
20846;SDS011;10584;50.854;12.902;2023-03-01T21:31:27;61.50;;;21.53;;
20846;SDS011;10584;50.854;12.902;2023-03-01T21:36:51;65.53;;;21.57;;
20846;SDS011;10584;50.854;12.902;2023-03-01T21:42:12;59.53;;;21.23;;
20846;SDS011;10584;50.854;12.902;2023-03-01T21:47:34;57.97;;;20.90;;
20846;SDS011;10584;50.854;12.902;2023-03-01T21:52:57;57.40;;;20.40;;
20846;SDS011;10584;50.854;12.902;2023-03-01T21:58:19;59.63;;;20.80;;
20846;SDS011;10584;50.854;12.902;2023-03-01T22:03:42;56.07;;;19.93;;
20846;SDS011;10584;50.854;12.902;2023-03-01T22:09:08;61.10;;;21.73;;
20846;SDS011;10584;50.854;12.902;2023-03-01T22:14:33;54.50;;;20.87;;
20846;SDS011;10584;50.854;12.902;2023-03-01T22:19:55;51.60;;;20.33;;
20846;SDS011;10584;50.854;12.902;2023-03-01T22:25:16;51.13;;;19.20;;
20846;SDS011;10584;50.854;12.902;2023-03-01T22:30:38;55.23;;;19.77;;
20846;SDS011;10584;50.854;12.902;2023-03-01T22:36:00;56.03;;;19.37;;
20846;SDS011;10584;50.854;12.902;2023-03-01T22:41:22;52.13;;;19.53;;
20846;SDS011;10584;50.854;12.902;2023-03-01T22:46:43;60.43;;;19.73;;
20846;SDS011;10584;50.854;12.902;2023-03-01T22:52:05;53.80;;;20.67;;
20846;SDS011;10584;50.854;12.902;2023-03-01T22:57:27;61.87;;;22.20;;
20846;SDS011;10584;50.854;12.902;2023-03-01T23:02:49;68.00;;;22.47;;
20846;SDS011;10584;50.854;12.902;2023-03-01T23:08:10;56.03;;;21.17;;
20846;SDS011;10584;50.854;12.902;2023-03-01T23:13:32;66.50;;;22.10;;
20846;SDS011;10584;50.854;12.902;2023-03-01T23:18:54;61.17;;;21.03;;
20846;SDS011;10584;50.854;12.902;2023-03-01T23:24:20;64.37;;;22.90;;
20846;SDS011;10584;50.854;12.902;2023-03-01T23:29:51;67.10;;;23.77;;
20846;SDS011;10584;50.854;12.902;2023-03-01T23:35:13;60.33;;;21.67;;
20846;SDS011;10584;50.854;12.902;2023-03-01T23:40:36;56.77;;;23.17;;
20846;SDS011;10584;50.854;12.902;2023-03-01T23:45:58;58.47;;;20.30;;
20846;SDS011;10584;50.854;12.902;2023-03-01T23:51:20;57.87;;;21.17;;
20846;SDS011;10584;50.854;12.902;2023-03-01T23:56:43;59.90;;;21.93;;
